Time;durP1;ratioP1;P1;durP2;ratioP2;P2;SDS_P1;SDS_P2;PMS_P1;PMS_P2;Temp;Humidity;BMP_temperature;BMP_pressure;BME280_temperature;BME280_humidity;BME280_pressure;Samples;Min_cycle;Max_cycle;Signal;HPM_P1;HPM_P2
2022/02/04 00:25:04;;;;;;;13.30;5.30;;;;;;;9.26;100.00;97691.41;5009595;28;20194;-53
2022/02/04 00:27:30;;;;;;;10.77;4.47;;;;;;;10.12;100.00;97694.75;5007766;28;20046;-54
2022/02/04 00:30:06;;;;;;;13.52;5.03;;;;;;;10.11;100.00;97695.66;5009157;28;20018;-54
2022/02/04 00:32:34;;;;;;;10.35;4.78;;;;;;;10.03;100.00;97687.31;5008673;28;20049;-55
2022/02/04 00:35:16;;;;;;;12.90;5.07;;;;;;;10.07;100.00;97691.47;5008314;28;20479;-53
2022/02/04 00:37:57;;;;;;;9.38;4.22;;;;;;;10.06;100.00;97692.41;5007861;28;20061;-54
2022/02/04 00:40:26;;;;;;;11.40;5.00;;;;;;;9.53;100.00;97703.34;5014731;28;20800;-56
2022/02/04 00:42:54;;;;;;;11.13;4.35;;;;;;;9.97;100.00;97698.03;5009229;28;20295;-55
2022/02/04 00:45:26;;;;;;;12.93;5.40;;;;;;;9.47;100.00;97699.25;5007298;28;20450;-56
2022/02/04 00:48:00;;;;;;;;;;;;;;;10.01;100.00;97704.78;5008142;28;20453;-54
2022/02/04 00:50:47;;;;;;;10.05;4.40;;;;;;;9.55;100.00;97698.94;5008034;28;19920;-56
2022/02/04 00:53:19;;;;;;;13.10;5.63;;;;;;;9.84;100.00;97700.31;5008385;28;20025;-56
2022/02/04 00:56:00;;;;;;;15.48;6.57;;;;;;;9.14;100.00;97698.88;5008131;28;20725;-55
2022/02/04 01:26:05;;;;;;;14.27;7.20;;;;;;;9.66;100.00;97699.31;5006316;28;20037;-56
2022/02/04 01:28:32;;;;;;;17.08;8.07;;;;;;;9.04;100.00;97707.03;5007742;28;20725;-57
2022/02/04 01:30:58;;;;;;;17.13;8.23;;;;;;;9.03;100.00;97699.31;5007809;28;20604;-54
2022/02/04 01:33:25;;;;;;;14.73;8.18;;;;;;;8.82;100.00;97700.97;5007236;28;20128;-57
2022/02/04 01:35:53;;;;;;;16.88;8.18;;;;;;;8.95;100.00;97693.53;5006066;28;20033;-56
2022/02/04 01:38:18;;;;;;;15.95;7.03;;;;;;;8.82;100.00;97690.56;5005336;28;20556;-54
2022/02/04 01:40:44;;;;;;;17.77;8.00;;;;;;;9.11;100.00;97697.22;5007032;28;20041;-56
2022/02/04 01:43:09;;;;;;;17.50;8.05;;;;;;;9.67;100.00;97693.22;5008221;28;20550;-54
2022/02/04 01:45:35;;;;;;;17.42;8.80;;;;;;;8.64;100.00;97687.78;5004288;28;20272;-55
2022/02/04 01:48:00;;;;;;;15.43;7.55;;;;;;;8.88;100.00;97680.78;5006621;28;20664;-56
2022/02/04 01:50:29;;;;;;;15.02;6.47;;;;;;;9.19;100.00;97687.38;5005560;28;20042;-55
2022/02/04 01:52:59;;;;;;;17.88;7.50;;;;;;;9.90;100.00;97689.63;5006043;28;20683;-56
2022/02/04 01:55:26;;;;;;;17.65;8.60;;;;;;;9.15;100.00;97687.53;5006747;28;20043;-55
2022/02/04 01:57:52;;;;;;;17.85;8.80;;;;;;;9.25;100.00;97679.31;5006930;28;20442;-55
2022/02/04 02:00:18;;;;;;;17.67;7.43;;;;;;;9.32;100.00;97677.31;5005346;28;20499;-54
2022/02/04 02:02:44;;;;;;;19.88;8.50;;;;;;;9.57;100.00;97665.88;5005151;28;20057;-55
2022/02/04 02:05:09;;;;;;;13.70;5.18;;;;;;;9.92;100.00;97673.91;5006445;28;20492;-55
2022/02/04 02:07:45;;;;;;;18.42;9.68;;;;;;;9.44;100.00;97683.75;5005889;28;20029;-55
2022/02/04 02:10:14;;;;;;;17.30;8.00;;;;;;;9.19;100.00;97683.91;5006358;28;20522;-53
2022/02/04 02:15:21;;;;;;;17.80;8.45;;;;;;;8.91;100.00;97695.41;5007480;28;20128;-58
2022/02/04 02:34:51;;;;;;;18.88;9.63;;;;;;;8.53;100.00;97699.47;5006148;28;20590;-55
2022/02/04 02:45:35;;;;;;;20.27;9.07;;;;;;;8.77;100.00;97710.72;4920460;29;20406;-53
2022/02/04 02:58:50;;;;;;;14.40;6.15;;;;;;;8.99;100.00;97718.53;5007526;28;20985;-53
2022/02/04 03:01:15;;;;;;;18.30;7.65;;;;;;;8.40;100.00;97720.72;5005072;28;20042;-55
2022/02/04 03:03:43;;;;;;;20.38;9.60;;;;;;;8.20;100.00;97718.00;5004133;28;20501;-53
2022/02/04 03:06:09;;;;;;;15.95;6.45;;;;;;;8.72;100.00;97725.66;5004747;28;20038;-54
2022/02/04 03:08:34;;;;;;;18.60;8.88;;;;;;;7.89;100.00;97725.09;5004600;28;20035;-55
2022/02/04 03:10:59;;;;;;;19.02;9.05;;;;;;;7.96;100.00;97722.28;5003663;28;20050;-54
2022/02/04 03:13:27;;;;;;;18.92;8.27;;;;;;;8.54;100.00;97724.56;5005776;28;20076;-54
2022/02/04 03:16:02;;;;;;;16.88;7.85;;;;;;;8.38;100.00;97721.66;5006789;28;20044;-54
2022/02/04 03:18:30;;;;;;;16.90;8.13;;;;;;;8.28;100.00;97732.38;5005251;28;20103;-53
2022/02/04 03:21:01;;;;;;;20.00;8.02;;;;;;;8.43;100.00;97731.00;5003048;28;20128;-55
2022/02/04 03:23:29;;;;;;;16.70;7.90;;;;;;;8.51;100.00;97728.16;5001520;28;20018;-56
2022/02/04 03:26:03;;;;;;;15.23;6.45;;;;;;;8.25;100.00;97736.84;5005504;28;20037;-54
2022/02/04 03:28:30;;;;;;;14.70;7.43;;;;;;;7.92;100.00;97729.34;5003295;28;20495;-54
2022/02/04 03:30:57;;;;;;;14.68;6.43;;;;;;;8.20;100.00;97718.84;5003167;28;20438;-56
2022/02/04 03:33:25;;;;;;;13.38;5.85;;;;;;;7.51;100.00;97724.63;5004366;28;20040;-54
2022/02/04 03:35:51;;;;;;;13.02;6.00;;;;;;;8.22;100.00;97727.41;5003743;28;20057;-55
2022/02/04 03:38:16;;;;;;;12.77;5.38;;;;;;;8.52;100.00;97723.78;5005459;28;20025;-55
2022/02/04 03:40:42;;;;;;;12.55;5.40;;;;;;;8.62;100.00;97720.78;5004199;28;20033;-53
2022/02/04 03:43:07;;;;;;;12.88;6.07;;;;;;;8.08;100.00;97724.47;5004762;28;20029;-54
2022/02/04 03:45:33;;;;;;;15.75;6.93;;;;;;;7.99;100.00;97717.00;5005117;28;20466;-54
2022/02/04 03:48:00;;;;;;;14.95;6.88;;;;;;;8.13;100.00;97722.56;5004364;28;20027;-55
2022/02/04 03:50:25;;;;;;;16.58;7.13;;;;;;;8.16;100.00;97732.84;5002918;28;20045;-54
2022/02/04 03:52:51;;;;;;;12.65;4.40;;;;;;;8.85;100.00;97732.06;5004839;28;20025;-53
2022/02/04 03:55:16;;;;;;;13.02;5.35;;;;;;;8.33;100.00;97741.78;5004332;28;20488;-55
2022/02/04 03:57:42;;;;;;;16.67;7.97;;;;;;;8.04;100.00;97735.88;5004801;28;20105;-54
2022/02/04 04:00:10;;;;;;;16.75;7.82;;;;;;;8.16;100.00;97732.84;5001762;28;20017;-55
2022/02/04 04:02:35;;;;;;;18.23;8.55;;;;;;;8.00;100.00;97732.53;5004558;28;20117;-57
2022/02/04 04:05:00;;;;;;;21.02;9.25;;;;;;;7.70;100.00;97734.41;5005596;28;20112;-54
2022/02/04 04:07:26;;;;;;;18.85;8.25;;;;;;;7.51;100.00;97732.44;5004804;28;20042;-53
2022/02/04 04:09:58;;;;;;;20.40;8.80;;;;;;;7.89;100.00;97740.69;5007119;28;20107;-53
2022/02/04 04:12:24;;;;;;;21.88;9.48;;;;;;;7.52;100.00;97736.72;5003917;28;20073;-57
2022/02/04 04:14:53;;;;;;;19.15;8.20;;;;;;;8.01;100.00;97743.75;5004855;28;20018;-56
2022/02/04 04:17:19;;;;;;;21.25;8.73;;;;;;;7.70;100.00;97742.19;5004907;28;20562;-54
2022/02/04 04:19:44;;;;;;;21.85;8.63;;;;;;;7.81;100.00;97750.50;5004879;28;20030;-56
2022/02/04 04:22:10;;;;;;;19.83;7.95;;;;;;;8.08;100.00;97756.47;5004360;28;20680;-55
2022/02/04 04:24:35;;;;;;;18.67;7.47;;;;;;;7.91;100.00;97751.03;5001945;28;20045;-54
2022/02/04 04:27:01;;;;;;;20.60;9.00;;;;;;;7.71;100.00;97760.31;5004279;28;20072;-55
2022/02/04 04:29:26;;;;;;;22.75;9.90;;;;;;;7.53;100.00;97759.19;5004983;28;20254;-54
2022/02/04 04:31:51;;;;;;;21.92;9.52;;;;;;;7.39;100.00;97756.19;5004896;28;20720;-55
2022/02/04 04:34:16;;;;;;;21.27;9.15;;;;;;;7.50;100.00;97759.28;5007502;28;20120;-55
2022/02/04 04:36:43;;;;;;;21.42;8.93;;;;;;;7.65;100.00;97752.75;5005903;28;20533;-54
2022/02/04 04:44:36;;;;;;;22.67;10.07;;;;;;;7.43;100.00;97751.75;5008260;28;20034;-56
2022/02/04 05:25:58;;;;;;;23.35;9.60;;;;;;;7.50;100.00;97764.47;5006884;28;20155;-54
2022/02/04 05:28:54;;;;;;;19.88;8.98;;;;;;;7.51;100.00;97781.75;4975297;28;20729;-55
2022/02/04 05:31:20;;;;;;;15.77;5.75;;;;;;;8.14;100.00;97785.75;5006768;28;20138;-56
2022/02/04 05:33:45;;;;;;;17.33;7.05;;;;;;;7.83;100.00;97779.84;5007203;28;20022;-55
2022/02/04 05:36:11;;;;;;;19.17;7.30;;;;;;;7.89;100.00;97777.03;5007130;28;20358;-54
2022/02/04 05:38:38;;;;;;;22.23;9.13;;;;;;;7.25;100.00;97773.94;5006916;28;20114;-54
2022/02/04 05:41:06;;;;;;;19.15;8.32;;;;;;;7.43;100.00;97778.56;5004045;28;20048;-53
2022/02/04 05:43:35;;;;;;;21.48;9.18;;;;;;;7.61;100.00;97781.44;5006153;28;20018;-55
2022/02/04 05:46:10;;;;;;;23.45;8.43;;;;;;;7.59;100.00;97786.72;5005163;28;20519;-53
2022/02/04 05:48:38;;;;;;;20.80;8.68;;;;;;;7.26;100.00;97786.88;5005892;28;20029;-55
2022/02/04 05:53:50;;;;;;;14.00;5.55;;;;;;;8.00;100.00;97783.63;5007177;28;20169;-55
2022/02/04 05:56:47;;;;;;;26.02;9.75;;;;;;;7.28;100.00;97779.03;5007414;28;20710;-55
2022/02/04 06:02:07;;;;;;;24.60;10.13;;;;;;;7.18;100.00;97780.22;5004142;28;20036;-54
2022/02/04 06:04:48;;;;;;;16.35;6.38;;;;;;;7.72;100.00;97793.19;5010015;28;20018;-54
2022/02/04 06:07:24;;;;;;;18.63;7.68;;;;;;;7.31;100.00;97784.13;5008585;28;20041;-54
2022/02/04 06:23:43;;;;;;;16.40;5.20;;;;;;;7.95;100.00;97817.53;5009473;28;20092;-55
2022/02/04 06:26:09;;;;;;;13.70;6.55;;;;;;;7.37;100.00;97812.50;5007121;28;20066;-52
2022/02/04 06:28:35;;;;;;;16.20;6.50;;;;;;;7.72;100.00;97810.53;5009590;28;20523;-55
2022/02/04 06:31:03;;;;;;;12.20;4.90;;;;;;;8.02;100.00;97813.84;5010676;28;20045;-56
2022/02/04 06:33:28;;;;;;;15.13;6.05;;;;;;;7.68;100.00;97803.69;5006723;28;20106;-54
2022/02/04 06:35:53;;;;;;;15.27;5.13;;;;;;;8.08;100.00;97807.59;5005108;28;20164;-55
2022/02/04 06:38:18;;;;;;;16.38;6.63;;;;;;;7.65;100.00;97809.84;5009425;28;20065;-55
2022/02/04 06:40:44;;;;;;;12.07;5.38;;;;;;;7.94;100.00;97812.38;5008128;28;20030;-53
2022/02/04 06:43:10;;;;;;;15.30;6.65;;;;;;;7.28;100.00;97810.19;5008737;28;20057;-53
2022/02/04 06:45:35;;;;;;;12.10;4.57;;;;;;;7.78;100.00;97815.50;5007632;28;20033;-55
2022/02/04 06:48:01;;;;;;;17.65;5.05;;;;;;;7.68;100.00;97814.09;5009373;28;20036;-54
2022/02/04 06:50:26;;;;;;;15.35;6.75;;;;;;;7.16;100.00;97805.34;5009440;28;20044;-56
2022/02/04 06:52:53;;;;;;;17.85;6.93;;;;;;;7.46;100.00;97809.59;5007951;28;20018;-55
2022/02/04 06:55:20;;;;;;;16.92;7.07;;;;;;;7.49;100.00;97819.88;5006755;28;20031;-56
2022/02/04 06:57:46;;;;;;;15.35;6.45;;;;;;;7.62;100.00;97814.31;5006151;28;20020;-57
2022/02/04 07:00:14;;;;;;;16.83;7.35;;;;;;;7.38;100.00;97805.53;5006596;28;20026;-56
2022/02/04 07:02:40;;;;;;;15.63;6.97;;;;;;;7.22;100.00;97810.34;5007615;28;20116;-55
2022/02/04 07:05:11;;;;;;;18.10;7.10;;;;;;;7.21;100.00;97808.66;5006577;28;20036;-56
2022/02/04 07:07:38;;;;;;;17.35;7.70;;;;;;;7.20;100.00;97812.97;5007713;28;20113;-57
2022/02/04 07:10:24;;;;;;;16.45;7.50;;;;;;;7.21;100.00;97814.69;5006147;28;20659;-56
2022/02/04 07:12:53;;;;;;;20.63;8.10;;;;;;;7.17;100.00;97813.09;5009002;28;20503;-55
2022/02/04 07:19:45;;;;;;;20.15;8.52;;;;;;;5.93;100.00;97840.66;5008557;28;20708;-56
2022/02/04 07:20:47;;;;;;;20.02;8.32;;;;;;;5.88;100.00;97853.72;5007154;28;20033;-56
2022/02/04 07:23:13;;;;;;;19.48;8.43;;;;;;;5.87;100.00;97857.19;5010453;28;20063;-56
2022/02/04 07:25:38;;;;;;;20.70;8.73;;;;;;;5.91;100.00;97858.81;5008399;28;20084;-57
2022/02/04 07:28:04;;;;;;;20.73;8.20;;;;;;;5.71;100.00;97854.09;5006435;28;20028;-59
2022/02/04 07:30:30;;;;;;;21.48;8.30;;;;;;;5.72;100.00;97848.06;5007889;28;20041;-56
2022/02/04 07:33:01;;;;;;;20.60;8.57;;;;;;;5.70;100.00;97842.06;5009961;28;20025;-57
2022/02/04 07:40:57;;;;;;;23.60;8.27;;;;;;;5.64;100.00;97843.94;5007358;28;20052;-55
2022/02/04 07:43:25;;;;;;;20.70;8.18;;;;;;;5.73;100.00;97851.47;5009141;28;20955;-56
2022/02/04 07:45:51;;;;;;;22.88;8.50;;;;;;;5.62;100.00;97850.88;5007062;28;20038;-57
2022/02/04 07:48:17;;;;;;;22.85;7.63;;;;;;;5.68;100.00;97845.56;5007721;28;20121;-57
2022/02/04 07:50:44;;;;;;;19.48;7.82;;;;;;;5.75;100.00;97848.00;5007756;28;20082;-55
2022/02/04 07:53:10;;;;;;;20.75;7.15;;;;;;;5.68;100.00;97850.75;5008768;28;20030;-57
2022/02/04 07:55:35;;;;;;;22.88;7.78;;;;;;;5.56;100.00;97842.38;5006784;28;20618;-57
2022/02/04 07:58:01;;;;;;;20.95;5.97;;;;;;;5.72;100.00;97834.28;5009283;28;20034;-56
2022/02/04 08:00:27;;;;;;;21.05;7.70;;;;;;;6.67;100.00;97838.72;5004952;28;20045;-56
2022/02/04 08:02:52;;;;;;;19.17;7.15;;;;;;;7.11;100.00;97840.06;5006549;28;20075;-55
2022/02/04 08:05:22;;;;;;;22.33;8.57;;;;;;;8.12;100.00;97827.34;5005127;28;20115;-57
2022/02/04 08:07:56;;;;;;;18.20;7.25;;;;;;;7.60;100.00;97821.28;5009108;28;20435;-57
2022/02/04 08:24:02;;;;;;;16.33;6.60;;;;;;;7.36;100.00;97834.13;5012037;28;20558;-56
2022/02/04 08:26:46;;;;;;;18.38;6.38;;;;;;;7.05;100.00;97829.03;5012002;28;20038;-57
2022/02/04 08:29:35;;;;;;;18.30;6.93;;;;;;;7.08;100.00;97826.34;5010158;28;20040;-56
2022/02/04 08:52:46;;;;;;;;;;;;;;;;;;;;;
2022/02/04 08:55:08;;;;;;;15.23;5.63;;;;;;;7.19;100.00;97851.97;5011639;28;20034;-57
2022/02/04 09:00:50;;;;;;;12.25;4.93;;;;;;;7.29;100.00;97850.78;4940874;28;20102;-56
2022/02/04 09:03:27;;;;;;;15.90;5.45;;;;;;;7.21;100.00;97855.34;4941648;28;20126;-55
2022/02/04 09:06:07;;;;;;;15.82;5.47;;;;;;;7.47;100.00;97846.78;4983699;28;20432;-55
2022/02/04 09:08:34;;;;;;;13.77;5.03;;;;;;;7.60;100.00;97842.06;5010101;28;20891;-56
2022/02/04 09:11:06;;;;;;;14.10;4.90;;;;;;;7.13;100.00;97851.25;5010537;28;20491;-56
2022/02/04 09:19:03;;;;;;;12.30;4.45;;;;;;;7.30;100.00;97840.34;5008197;28;20072;-57
2022/02/04 09:21:49;;;;;;;13.27;4.88;;;;;;;7.68;100.00;97834.84;5007745;28;20109;-56
2022/02/04 09:24:15;;;;;;;15.98;5.35;;;;;;;7.85;100.00;97836.94;5008145;28;20037;-56
2022/02/04 09:26:41;;;;;;;11.18;3.88;;;;;;;7.86;100.00;97836.84;5010282;28;20116;-57
2022/02/04 09:29:07;;;;;;;10.85;4.05;;;;;;;7.97;100.00;97836.50;5010768;28;20118;-57
2022/02/04 09:31:35;;;;;;;12.75;4.28;;;;;;;7.67;100.00;97835.78;5009973;28;20453;-57
2022/02/04 09:34:01;;;;;;;10.02;3.42;;;;;;;7.44;100.00;97842.50;5013878;28;20025;-55
2022/02/04 09:36:26;;;;;;;11.52;3.70;;;;;;;7.64;100.00;97828.91;5010883;28;20663;-57
2022/02/04 09:38:52;;;;;;;11.23;3.83;;;;;;;7.35;100.00;97832.41;5010313;28;20033;-56
2022/02/04 09:41:22;;;;;;;10.55;3.78;;;;;;;7.64;100.00;97834.09;5008739;28;20041;-56
2022/02/04 09:43:48;;;;;;;11.52;3.80;;;;;;;7.56;100.00;97830.06;5010614;28;20071;-57
2022/02/04 09:46:15;;;;;;;8.82;3.70;;;;;;;8.15;100.00;97827.25;5009221;28;20068;-57
2022/02/04 09:48:43;;;;;;;11.57;4.13;;;;;;;8.02;100.00;97828.56;5009302;28;20632;-54
2022/02/04 09:51:10;;;;;;;11.57;4.05;;;;;;;7.82;100.00;97832.66;5008810;28;20034;-53
2022/02/04 10:07:57;;;;;;;10.63;4.03;;;;;;;7.71;100.00;97824.38;5009398;28;20048;-55
2022/02/04 10:18:27;;;;;;;10.57;3.67;;;;;;;7.87;100.00;97806.56;5007821;28;20030;-56
2022/02/04 10:20:53;;;;;;;10.48;3.88;;;;;;;7.85;100.00;97810.97;5009010;28;20037;-55
2022/02/04 10:23:19;;;;;;;10.88;3.60;;;;;;;7.86;100.00;97808.28;5008654;28;20060;-55
2022/02/04 10:25:45;;;;;;;10.50;3.70;;;;;;;7.87;100.00;97811.75;5004542;28;20037;-55
2022/02/04 10:28:31;;;;;;;11.50;3.97;;;;;;;7.88;100.00;97806.53;5009253;28;20482;-54
2022/02/04 10:31:18;;;;;;;7.88;3.38;;;;;;;7.66;100.00;97801.16;5009551;28;20037;-55
2022/02/04 10:34:05;;;;;;;10.30;3.33;;;;;;;8.79;100.00;97805.13;5009819;28;20026;-54
2022/02/04 10:36:58;;;;;;;8.23;3.13;;;;;;;8.77;100.00;97809.53;5009774;28;20609;-56
2022/02/04 10:47:50;;;;;;;9.00;3.65;;;;;;;10.43;100.00;97783.81;5010700;28;20069;-54
2022/02/04 10:53:55;;;;;;;10.40;3.85;;;;;;;10.50;100.00;97785.25;5008913;28;20072;-56
2022/02/04 10:59:28;;;;;;;7.10;3.05;;;;;;;11.58;100.00;97770.69;5009143;28;20939;-55
2022/02/04 11:04:44;;;;;;;7.97;3.15;;;;;;;10.74;100.00;97736.34;5008317;28;20021;-55
2022/02/04 11:34:54;;;;;;;5.10;2.10;;;;;;;12.39;100.00;97686.44;5008851;28;20065;-55
2022/02/04 11:49:23;;;;;;;4.45;1.90;;;;;;;12.12;100.00;97677.38;5011397;28;20036;-56
2022/02/04 11:54:30;;;;;;;4.15;1.83;;;;;;;12.43;100.00;97669.69;5011945;28;20026;-55
2022/02/04 11:56:56;;;;;;;4.13;1.83;;;;;;;13.33;100.00;97665.63;5011867;28;20052;-55
2022/02/04 11:59:53;;;;;;;4.82;2.08;;;;;;;11.75;100.00;97657.50;5012633;28;20049;-57
2022/02/04 12:02:31;;;;;;;5.53;2.38;;;;;;;13.09;100.00;97652.94;5012892;28;20551;-54
2022/02/04 12:05:02;;;;;;;5.45;2.15;;;;;;;13.35;100.00;97648.03;5011268;28;20688;-56
2022/02/04 12:07:34;;;;;;;4.68;1.90;;;;;;;13.39;100.00;97649.53;5011692;28;20243;-55
2022/02/04 12:10:01;;;;;;;3.83;1.80;;;;;;;16.14;100.00;97645.25;5010059;28;20021;-55
2022/02/04 12:15:25;;;;;;;4.60;2.00;;;;;;;13.19;100.00;97638.38;5010181;28;20037;-57
2022/02/04 12:17:51;;;;;;;4.45;1.90;;;;;;;13.21;100.00;97633.91;5011174;28;20021;-54
2022/02/04 12:20:16;;;;;;;4.32;2.00;;;;;;;12.50;100.00;97631.81;5009875;28;20572;-55
2022/02/04 12:22:51;;;;;;;4.50;2.10;;;;;;;13.41;100.00;97638.03;5010276;28;20040;-58
2022/02/04 12:25:55;;;;;;;3.88;1.85;;;;;;;14.37;100.00;97629.66;5011137;28;20673;-54
2022/02/04 12:28:43;;;;;;;4.93;2.20;;;;;;;12.69;100.00;97634.25;4989705;28;20029;-56
2022/02/04 12:31:15;;;;;;;4.65;2.00;;;;;;;13.14;100.00;97629.97;5011379;28;20057;-56
2022/02/04 12:33:43;;;;;;;5.05;2.00;;;;;;;13.52;100.00;97624.28;5011007;28;20084;-55
2022/02/04 12:36:21;;;;;;;5.88;2.00;;;;;;;15.03;100.00;97630.75;5008719;28;20037;-55
2022/02/04 12:38:49;;;;;;;4.07;1.92;;;;;;;12.40;100.00;97625.38;5012379;28;20034;-55
2022/02/04 12:41:36;;;;;;;5.38;2.00;;;;;;;12.52;100.00;97633.41;5011829;28;20108;-56
2022/02/04 12:44:09;;;;;;;5.10;2.15;;;;;;;15.31;100.00;97632.44;5010585;28;20040;-56
2022/02/04 12:46:38;;;;;;;5.25;2.08;;;;;;;12.41;100.00;97627.91;5010201;28;20041;-57
2022/02/04 12:49:06;;;;;;;4.72;2.17;;;;;;;12.83;100.00;97616.00;5024793;28;20030;-55
2022/02/04 12:52:13;;;;;;;4.97;2.00;;;;;;;13.20;100.00;97629.63;5010546;28;20041;-57
2022/02/04 12:54:44;;;;;;;5.50;2.20;;;;;;;13.76;100.00;97621.16;5002559;28;20128;-55
2022/02/04 13:11:16;;;;;;;4.18;2.00;;;;;;;10.19;100.00;97604.09;5010783;28;20100;-56
2022/02/04 13:13:47;;;;;;;5.93;2.40;;;;;;;9.20;100.00;97610.16;5003530;28;20041;-54
2022/02/04 13:16:30;;;;;;;7.80;2.70;;;;;;;8.85;100.00;97597.66;5009833;28;20099;-55
2022/02/04 13:19:02;;;;;;;6.68;2.40;;;;;;;8.70;100.00;97603.50;5010511;28;20038;-56
2022/02/04 13:21:28;;;;;;;7.75;2.35;;;;;;;8.40;100.00;97606.34;5008187;28;20117;-55
2022/02/04 13:23:53;;;;;;;9.15;2.88;;;;;;;8.27;100.00;97611.19;5009526;28;20084;-56
2022/02/04 13:26:24;;;;;;;9.27;2.50;;;;;;;8.32;100.00;97603.19;5010992;28;20130;-55
2022/02/04 13:28:56;;;;;;;7.68;2.45;;;;;;;8.13;100.00;97600.47;5010923;28;20668;-54
2022/02/04 13:31:22;;;;;;;9.38;2.65;;;;;;;7.93;100.00;97595.16;5007308;28;20623;-56
2022/02/04 13:33:51;;;;;;;7.32;2.10;;;;;;;7.92;100.00;97586.50;5010708;28;20718;-54
2022/02/04 13:46:56;;;;;;;8.80;2.38;;;;;;;8.33;100.00;97567.69;5010193;28;20100;-55
2022/02/04 13:49:50;;;;;;;8.25;2.30;;;;;;;8.24;100.00;97559.31;5009290;28;20025;-55
2022/02/04 13:52:24;;;;;;;7.88;2.20;;;;;;;8.10;100.00;97559.00;5011656;28;20605;-52
2022/02/04 13:57:47;;;;;;;10.27;2.75;;;;;;;8.24;100.00;97554.13;5009782;28;20485;-56
2022/02/04 14:02:43;;;;;;;8.23;2.25;;;;;;;8.29;100.00;97539.22;5008496;28;20629;-54
2022/02/04 14:05:10;;;;;;;7.97;2.22;;;;;;;8.20;100.00;97536.13;5007316;28;20118;-55
2022/02/04 14:07:37;;;;;;;7.72;2.20;;;;;;;8.16;100.00;97539.72;5009019;28;20057;-54
2022/02/04 14:10:42;;;;;;;11.10;2.35;;;;;;;8.04;100.00;97530.66;5009135;28;20037;-54
2022/02/04 14:13:13;;;;;;;8.52;2.38;;;;;;;8.27;100.00;97528.03;5009841;28;20037;-60
2022/02/04 14:15:42;;;;;;;8.63;2.30;;;;;;;8.46;100.00;97537.72;5008855;28;20064;-54
2022/02/04 14:18:10;;;;;;;9.05;2.45;;;;;;;8.64;100.00;97537.00;5009460;28;20057;-56
2022/02/04 14:20:39;;;;;;;9.95;2.67;;;;;;;8.99;100.00;97532.09;5008200;28;20044;-56
2022/02/04 14:23:05;;;;;;;6.75;1.92;;;;;;;9.15;100.00;97526.22;4992691;28;20083;-57
2022/02/04 14:25:32;;;;;;;7.47;2.20;;;;;;;8.77;100.00;97531.31;5006294;28;20042;-57
2022/02/04 14:28:01;;;;;;;11.07;2.20;;;;;;;9.22;100.00;97532.84;5007352;28;20018;-58
2022/02/04 14:30:32;;;;;;;9.52;2.67;;;;;;;9.18;100.00;97526.09;5006019;28;20030;-57
2022/02/04 14:33:10;;;;;;;10.05;2.15;;;;;;;9.15;100.00;97526.22;5005865;28;20141;-57
2022/02/04 14:35:59;;;;;;;13.43;3.72;;;;;;;9.26;100.00;97518.78;5009952;28;20511;-59
2022/02/04 15:03:03;;;;;;;10.50;4.15;;;;;;;8.81;100.00;97481.69;5007790;28;20049;-56
2022/02/04 15:05:31;;;;;;;8.57;2.55;;;;;;;10.35;100.00;97477.38;5006849;28;20065;-55
2022/02/04 15:08:04;;;;;;;8.15;2.28;;;;;;;9.92;100.00;97488.97;5005794;28;20700;-55
2022/02/04 15:10:32;;;;;;;7.00;2.17;;;;;;;9.22;100.00;97484.25;5007510;28;20038;-56
2022/02/04 15:12:57;;;;;;;6.45;2.00;;;;;;;9.63;100.00;97480.72;5007272;28;20025;-56
2022/02/04 15:15:22;;;;;;;10.73;2.50;;;;;;;9.05;100.00;97482.38;5008168;28;20084;-55
2022/02/04 15:17:48;;;;;;;6.45;2.13;;;;;;;9.53;100.00;97477.69;5007368;28;20033;-55
2022/02/04 15:20:14;;;;;;;6.03;2.00;;;;;;;9.47;100.00;97475.38;5007773;28;20107;-56
2022/02/04 15:22:39;;;;;;;6.72;2.20;;;;;;;9.41;100.00;97470.44;5008131;28;20426;-56
2022/02/04 15:25:19;;;;;;;7.75;2.20;;;;;;;10.17;100.00;97471.25;5008120;28;20435;-57
2022/02/04 15:27:54;;;;;;;7.03;2.10;;;;;;;10.22;100.00;97474.50;5007435;28;20034;-56
2022/02/04 15:30:26;;;;;;;7.00;2.28;;;;;;;9.88;100.00;97461.38;5007208;28;20029;-57
2022/02/04 15:32:51;;;;;;;6.72;2.15;;;;;;;10.02;100.00;97464.19;5008584;28;20704;-57
2022/02/04 15:35:17;;;;;;;7.47;2.35;;;;;;;9.70;100.00;97461.28;5007037;28;20581;-56
2022/02/04 15:37:42;;;;;;;8.63;2.40;;;;;;;10.01;100.00;97465.91;5008094;28;20026;-55
2022/02/04 15:40:09;;;;;;;8.15;2.15;;;;;;;9.56;100.00;97469.75;5007016;28;20646;-56
2022/02/04 15:42:37;;;;;;;10.90;2.20;;;;;;;9.43;100.00;97459.03;5007349;28;20019;-56
2022/02/04 15:45:27;;;;;;;6.30;2.25;;;;;;;9.64;100.00;97458.97;5006479;28;20041;-55
2022/02/04 15:51:32;;;;;;;6.78;2.30;;;;;;;9.51;100.00;97465.66;5008452;28;20037;-56
2022/02/04 15:53:27;;;;;;;7.05;2.30;;;;;;;10.05;100.00;97458.81;4996180;28;20029;-57
2022/02/04 16:04:05;;;;;;;7.03;2.05;;;;;;;10.09;100.00;97447.34;5007404;28;20032;-57
2022/02/04 16:06:32;;;;;;;7.85;2.70;;;;;;;10.26;100.00;97454.34;5006594;28;20056;-55
2022/02/04 16:08:58;;;;;;;5.40;2.10;;;;;;;10.59;100.00;97457.09;5008649;28;20030;-54
2022/02/04 16:14:38;;;;;;;6.43;2.63;;;;;;;10.02;100.00;97466.78;4960245;28;20136;-57
2022/02/04 16:17:13;;;;;;;8.50;2.65;;;;;;;9.51;100.00;97460.47;5001124;28;20446;-58
2022/02/04 16:19:45;;;;;;;7.78;2.60;;;;;;;9.07;100.00;97453.72;5006003;28;20411;-57
2022/02/04 16:22:18;;;;;;;6.60;2.38;;;;;;;9.69;100.00;97464.81;5004837;28;20651;-58
2022/02/04 16:29:59;;;;;;;8.65;2.65;;;;;;;9.62;100.00;97447.78;5010186;28;20029;-58
2022/02/04 16:32:27;;;;;;;7.05;2.38;;;;;;;9.76;100.00;97447.16;5008260;28;20041;-59
2022/02/04 16:34:54;;;;;;;9.43;2.63;;;;;;;9.62;100.00;97453.84;5012689;28;20033;-58
2022/02/04 16:37:30;;;;;;;6.93;2.40;;;;;;;10.05;100.00;97456.19;5009403;28;20353;-58
2022/02/04 16:39:57;;;;;;;7.38;2.67;;;;;;;9.86;100.00;97465.81;5010490;28;20128;-54
2022/02/04 16:42:23;;;;;;;7.40;2.50;;;;;;;10.38;100.00;97468.56;5008992;28;20045;-56
2022/02/04 16:44:48;;;;;;;8.07;2.70;;;;;;;10.12;100.00;97473.22;5011091;28;20029;-55
2022/02/04 16:47:15;;;;;;;9.43;2.33;;;;;;;10.27;100.00;97465.59;5007925;28;20541;-55
2022/02/04 16:49:40;;;;;;;8.57;2.60;;;;;;;9.93;100.00;97465.44;5012377;28;20030;-54
2022/02/04 16:52:06;;;;;;;6.35;2.35;;;;;;;9.76;100.00;97479.25;5017542;28;20044;-56
2022/02/04 16:54:35;;;;;;;10.10;2.45;;;;;;;9.68;100.00;97472.72;5010080;28;20026;-56
2022/02/04 16:57:02;;;;;;;7.55;2.75;;;;;;;9.29;100.00;97460.59;5009452;28;20041;-56
2022/02/04 16:59:28;;;;;;;7.55;2.30;;;;;;;11.98;100.00;97469.91;5011409;28;20022;-55
2022/02/04 17:01:54;;;;;;;6.72;2.38;;;;;;;9.81;100.00;97469.47;5010452;28;20041;-57
2022/02/04 17:04:20;;;;;;;7.70;2.50;;;;;;;10.77;100.00;97472.72;5008639;28;20094;-57
2022/02/04 17:06:54;;;;;;;6.85;2.00;;;;;;;10.89;100.00;97468.66;5005675;28;20038;-57
2022/02/04 17:09:22;;;;;;;6.43;2.55;;;;;;;9.59;100.00;97471.34;5008742;28;20517;-57
2022/02/04 17:11:49;;;;;;;5.70;2.00;;;;;;;11.16;100.00;97488.13;5009553;28;20038;-59
2022/02/04 17:14:16;;;;;;;6.18;2.10;;;;;;;11.14;100.00;97489.13;5012088;28;20026;-58
2022/02/04 17:16:42;;;;;;;6.25;2.40;;;;;;;10.94;100.00;97491.00;5010840;28;20037;-57
2022/02/04 17:19:13;;;;;;;5.97;2.22;;;;;;;11.99;100.00;97498.59;5018439;28;20029;-57
2022/02/04 17:21:39;;;;;;;5.97;2.20;;;;;;;12.71;100.00;97491.06;5009992;28;20041;-58
2022/02/04 17:24:07;;;;;;;5.32;1.70;;;;;;;15.14;100.00;97511.84;5010683;28;20294;-57
2022/02/04 17:26:33;;;;;;;4.60;1.95;;;;;;;13.30;100.00;97494.59;5010194;28;20056;-57
2022/02/04 17:28:58;;;;;;;11.48;2.30;;;;;;;12.40;100.00;97492.81;5010071;28;20041;-57
2022/02/04 17:31:24;;;;;;;5.10;2.35;;;;;;;11.42;100.00;97487.69;5009619;28;20608;-57
2022/02/04 17:33:49;;;;;;;5.38;2.20;;;;;;;11.84;100.00;97491.56;5010005;28;20575;-57
2022/02/04 17:36:15;;;;;;;5.97;2.20;;;;;;;11.79;100.00;97485.75;5005163;28;20075;-57
2022/02/04 17:38:42;;;;;;;7.68;2.38;;;;;;;10.70;100.00;97473.97;5008198;28;20649;-56
2022/02/04 17:41:09;;;;;;;7.55;2.38;;;;;;;9.98;100.00;97465.22;5009348;28;20034;-56
2022/02/04 17:43:35;;;;;;;5.22;2.05;;;;;;;10.66;100.00;97472.41;5007995;28;20108;-55